地図

経路データ

SID SEASON NUMBER BASIN SUBBASIN NAME ISO_TIME NATURE LAT LON WMO_WIND WMO_PRES WMO_AGENCY TRACK_TYPE DIST2LAND LANDFALL IFLAG USA_AGENCY USA_ATCF_ID USA_LAT USA_LON USA_RECORD USA_STATUS USA_WIND USA_PRES USA_SSHS USA_R34_NE USA_R34_SE USA_R34_SW USA_R34_NW USA_R50_NE USA_R50_SE USA_R50_SW USA_R50_NW USA_R64_NE USA_R64_SE USA_R64_SW USA_R64_NW USA_POCI USA_ROCI USA_RMW USA_EYE TOKYO_LAT TOKYO_LON TOKYO_GRADE TOKYO_WIND TOKYO_PRES TOKYO_R50_DIR TOKYO_R50_LONG TOKYO_R50_SHORT TOKYO_R30_DIR TOKYO_R30_LONG TOKYO_R30_SHORT TOKYO_LAND CMA_LAT CMA_LON CMA_CAT CMA_WIND CMA_PRES HKO_LAT HKO_LON HKO_CAT HKO_WIND HKO_PRES NEWDELHI_LAT NEWDELHI_LON NEWDELHI_GRADE NEWDELHI_WIND NEWDELHI_PRES NEWDELHI_CI NEWDELHI_DP NEWDELHI_POCI REUNION_LAT REUNION_LON REUNION_TYPE REUNION_WIND REUNION_PRES REUNION_TNUM REUNION_CI REUNION_RMW REUNION_R34_NE REUNION_R34_SE REUNION_R34_SW REUNION_R34_NW REUNION_R50_NE REUNION_R50_SE REUNION_R50_SW REUNION_R50_NW REUNION_R64_NE REUNION_R64_SE REUNION_R64_SW REUNION_R64_NW BOM_LAT BOM_LON BOM_TYPE BOM_WIND BOM_PRES BOM_TNUM BOM_CI BOM_RMW BOM_R34_NE BOM_R34_SE BOM_R34_SW BOM_R34_NW BOM_R50_NE BOM_R50_SE BOM_R50_SW BOM_R50_NW BOM_R64_NE BOM_R64_SE BOM_R64_SW BOM_R64_NW BOM_ROCI BOM_POCI BOM_EYE BOM_POS_METHOD BOM_PRES_METHOD NADI_LAT NADI_LON NADI_CAT NADI_WIND NADI_PRES WELLINGTON_LAT WELLINGTON_LON WELLINGTON_WIND WELLINGTON_PRES DS824_LAT DS824_LON DS824_STAGE DS824_WIND DS824_PRES TD9636_LAT TD9636_LON TD9636_STAGE TD9636_WIND TD9636_PRES TD9635_LAT TD9635_LON TD9635_WIND TD9635_PRES TD9635_ROCI NEUMANN_LAT NEUMANN_LON NEUMANN_CLASS NEUMANN_WIND NEUMANN_PRES MLC_LAT MLC_LON MLC_CLASS MLC_WIND MLC_PRES USA_GUST BOM_GUST BOM_GUST_PER REUNION_GUST REUNION_GUST_PER USA_SEAHGT USA_SEARAD_NE USA_SEARAD_SE USA_SEARAD_SW USA_SEARAD_NW STORM_SPEED STORM_DIR
1961048N05086 1961 20 NI BB NOT_NAMED 1961-02-17 06:00:00 TS 4.70000 86.4000 main 558 554 O________O____ jtwc_io IO021961 4.70000 86.4000 -1 4.70000 86.4000 TC 2 29
1961048N05086 1961 20 NI BB NOT_NAMED 1961-02-17 09:00:00 TS 4.79750 86.4600 main 564 560 P________P____ IO021961 4.79750 86.4600 -1 4.79750 86.4600 TC 2 27
1961048N05086 1961 20 NI BB NOT_NAMED 1961-02-17 12:00:00 TS 4.90000 86.5000 main 560 556 O________O____ jtwc_io IO021961 4.90000 86.5000 -1 4.90000 86.5000 TC 2 11
1961048N05086 1961 20 NI BB NOT_NAMED 1961-02-17 15:00:00 TS 5.00667 86.5067 main 556 551 P________PO___ IO021961 5.00750 86.5075 -1 5.00750 86.5075 TC 5.00000 86.5000 1 2 8
1961048N05086 1961 20 NI BB NOT_NAMED 1961-02-17 18:00:00 TS 5.08781 86.5000 main 551 551 O________OP___ jtwc_io IO021961 5.10000 86.5000 -1 5.10000 86.5000 TC 5.03906 86.5000 1 1 348
1961048N05086 1961 20 NI BB NOT_NAMED 1961-02-17 21:00:00 TS 5.12886 86.5000 main 551 547 P________PP___ IO021961 5.14250 86.5000 -1 5.14250 86.5000 TC 5.09250 86.5000 1 1 8
1961048N05086 1961 20 NI BB NOT_NAMED 1961-02-18 00:00:00 TS 5.19156 86.5000 main 547 543 O________OP___ jtwc_io IO021961 5.20000 86.5000 -1 5.20000 86.5000 TC 25 5.17469 86.5000 1 2 3
1961048N05086 1961 20 NI BB NOT_NAMED 1961-02-18 03:00:00 TS 5.31833 86.5000 main 543 535 P________PO___ IO021961 5.32750 86.5000 -1 5.32750 86.5000 TC 25 5.30000 86.5000 1 3 4
1961048N05086 1961 20 NI BB NOT_NAMED 1961-02-18 06:00:00 TS 5.49208 86.5000 main 535 529 O________OP___ jtwc_io IO021961 5.50000 86.5000 -1 5.50000 86.5000 TC 25 5.47625 86.5000 1 4 4
1961048N05086 1961 20 NI BB NOT_NAMED 1961-02-18 09:00:00 TS 5.69500 86.5000 main 529 523 P________PP___ IO021961 5.70000 86.5000 -1 5.70000 86.5000 TC 25 5.68500 86.5000 1 4 4
1961048N05086 1961 20 NI BB NOT_NAMED 1961-02-18 12:00:00 TS 5.90042 86.5000 main 523 518 O________OP___ jtwc_io IO021961 5.90000 86.5000 -1 5.90000 86.5000 TC 25 5.90125 86.5000 1 4 0
1961048N05086 1961 20 NI BB NOT_NAMED 1961-02-18 15:00:00 TS 6.07667 86.5000 main 518 516 P________PO___ IO021961 6.06500 86.5000 -1 6.06500 86.5000 TC 25 6.10000 86.5000 1 3 0
1961048N05086 1961 20 NI BB NOT_NAMED 1961-02-18 18:00:00 TS 6.19927 86.4987 main 516 514 O________OP___ jtwc_io IO021961 6.20000 86.5000 -1 6.20000 86.5000 TC 25 6.19782 86.4960 1 2 352
1961048N05086 1961 20 NI BB NOT_NAMED 1961-02-18 21:00:00 TS 6.28417 86.4975 main 514 512 P________PP___ IO021961 6.28500 86.5000 -1 6.28500 86.5000 TC 25 6.28252 86.4925 1 2 355
1961048N05086 1961 20 NI BB NOT_NAMED 1961-02-19 00:00:00 TS 6.40032 86.4976 main 512 510 O________OP___ jtwc_io IO021961 6.40000 86.5000 -1 6.40000 86.5000 TC 25 6.40095 86.4928 1 3 0
1961048N05086 1961 20 NI BB NOT_NAMED 1961-02-19 03:00:00 TS 6.59334 86.4950 main 510 508 P________PO___ IO021961 6.59001 86.4925 -1 6.59001 86.4925 TC 25 6.60000 86.5000 1 5 0
1961048N05086 1961 20 NI BB NOT_NAMED 1961-02-19 06:00:00 TS 6.92240 86.5046 main 508 508 O________OP___ jtwc_io IO021961 6.90000 86.5000 -1 6.90000 86.5000 TC 25 6.96718 86.5137 1 8 4
1961048N05086 1961 20 NI BB NOT_NAMED 1961-02-19 09:00:00 TS 7.39418 86.5450 main 509 509 P________PP___ IO021961 7.38501 86.5500 -1 7.38501 86.5500 TC 25 7.41252 86.5350 1 10 5
1961048N05086 1961 20 NI BB NOT_NAMED 1961-02-19 12:00:00 TS 7.89220 86.5879 main 528 528 O________OP___ jtwc_io IO021961 7.90000 86.6000 -1 7.90000 86.6000 TC 25 7.87659 86.5637 1 9 4
1961048N05086 1961 20 NI BB NOT_NAMED 1961-02-19 15:00:00 TS 8.29166 86.5950 main 534 534 P________PO___ IO021961 8.28749 86.5926 -1 8.28749 86.5926 TC 25 8.30000 86.6000 1 7 1
1961048N05086 1961 20 NI BB NOT_NAMED 1961-02-19 18:00:00 TS 8.60416 86.6156 main 540 540 O________OP___ jtwc_io IO021961 8.60000 86.6000 -1 8.60000 86.6000 TC 25 8.61248 86.6469 1 6 10
1961048N05086 1961 20 NI BB NOT_NAMED 1961-02-19 21:00:00 TS 8.87333 86.7000 main 559 559 P________PP___ IO021961 8.87251 86.7000 -1 8.87251 86.7000 TC 25 8.87497 86.7000 1 5 19
1961048N05086 1961 20 NI BB NOT_NAMED 1961-02-20 00:00:00 TS 9.09999 86.7844 main 575 575 O________OP___ jtwc_io IO021961 9.10000 86.8000 -1 9.10000 86.8000 TC 25 9.09998 86.7531 1 5 14
1961048N05086 1961 20 NI BB NOT_NAMED 1961-02-20 03:00:00 TS 9.31000 86.8050 main 582 582 P________PO___ IO021961 9.31499 86.8075 -1 9.31499 86.8075 TC 25 9.30000 86.8000 1 4 0
1961048N05086 1961 20 NI BB NOT_NAMED 1961-02-20 06:00:00 TS 9.50156 86.8121 main 589 589 O________OP___ jtwc_io IO021961 9.50000 86.8000 -1 9.50000 86.8000 TC 25 9.50468 86.8363 1 4 10
1961048N05086 1961 20 NI BB NOT_NAMED 1961-02-20 09:00:00 TS 9.66750 86.8550 main 608 608 P________PP___ IO021961 9.65750 86.8500 -1 9.65750 86.8500 TC 25 9.68749 86.8650 1 3 15
1961048N05086 1961 20 NI BB NOT_NAMED 1961-02-20 12:00:00 TS 9.81719 86.8954 main 612 612 O________OP___ jtwc_io IO021961 9.80000 86.9000 -1 9.80000 86.9000 TC 25 9.85156 86.8863 1 3 10
1961048N05086 1961 20 NI BB NOT_NAMED 1961-02-20 15:00:00 TS 9.96667 86.9050 main 621 621 P________PO___ IO021961 9.95000 86.9075 -1 9.95000 86.9075 TC 25 10.0000 86.9000 1 3 0
1961048N05086 1961 20 NI BB NOT_NAMED 1961-02-20 18:00:00 TS 10.1185 86.9159 main 626 626 O________OP___ jtwc_io IO021961 10.1000 86.9000 -1 10.1000 86.9000 TC 25 10.1556 86.9478 1 3 4
1961048N05086 1961 20 NI BB NOT_NAMED 1961-02-20 21:00:00 TS 10.2700 86.9325 main 636 636 P________PP___ IO021961 10.2575 86.9075 -1 10.2575 86.9075 TC 25 10.2949 86.9824 1 3 0
1961048N05086 1961 20 NI BB NOT_NAMED 1961-02-21 00:00:00 TS 10.4039 86.9253 main 641 641 O________OP___ jtwc_io IO021961 10.4000 86.9000 -1 10.4000 86.9000 TC 25 10.4118 86.9759 1 3 353
1961048N05086 1961 20 NI BB NOT_NAMED 1961-02-21 03:00:00 TS 10.5150 86.8917 main 645 641 P________PO___ IO021961 10.5225 86.8875 -1 10.5225 86.8875 TC 25 10.5000 86.9000 1 2 321
1961048N05086 1961 20 NI BB NOT_NAMED 1961-02-21 06:00:00 TS 10.5823 86.7741 main 641 621 O________OP___ jtwc_io IO021961 10.6000 86.8000 -1 10.6000 86.8000 TC 25 10.5558 86.7353 1 3 285
1961048N05086 1961 20 NI BB NOT_NAMED 1961-02-21 09:00:00 TS 10.6038 86.5489 main 611 591 P________PP___ IO021961 10.6176 86.5875 -1 10.6176 86.5875 TC 25 10.5854 86.4975 1 5 272
1961048N05086 1961 20 NI BB NOT_NAMED 1961-02-21 12:00:00 TS 10.5986 86.2555 main 591 551 O________OP___ jtwc_io IO021961 10.6000 86.3000 -1 10.6000 86.3000 TC 25 10.5972 86.2109 1 6 270
1961048N05086 1961 20 NI BB NOT_NAMED 1961-02-21 15:00:00 NR 10.6000 85.9000 main 551 __________O___ IO021961 -1 TC 10.6000 85.9000 1 7 270

IBTrACS Databaseについて

本データベースは、米国NOAAが公開する1842年以降の世界の熱帯低気圧のベストトラックデータアーカイブInternational Best Track Archive for Climate Stewardship (IBTrACS)を、ウェブで閲覧しやすい形式に変換したものです。

最終更新日:2021-12-01